Portada
METAR-TAF:

METAR-TAF

Aeroports :

Chinandega, Nicaragua

latitud: 12-38N, longitud: 087-08W, altitud: 53 m

Observació

L'informe es va fer fa 9 hores i 48 minuts, a les 23:00 UTC
Vent 4 kt del Sud/Sud-Est
Temperatura 29°C
Humitat 74%
Pressió 1007 hPa
Visibilitat: 8000 m
Núvols disperses a una alçada de 2500 ft, Cumulus congestus.
tempesta

METAR: MNCH 202300Z 16004KT 8000 TS FEW24CB SCT025TCU 29/24 Q1007 CBRA NE E SE TCU S SE

Hora: 02:48 (08:48 UTC)


TAF: manca

Observacions i pronòstics meteorològics de més de 4000 aeroports (METAR i TAF).

Les estacions disponibles són els punts grocs i vermells al mapa.

Posi el ratolí al punt desitjat per veure el nom de l'estació.

Feu clic per veure les observacions i els pronòstics meteorològics.

Per canviar el mapa: feu clic els botons verds amb una creu de color negre per apropar; al botó verd amb un guió per allunyar la imatge; o en les fletxes verdes per a mapes adjacents.


METAR-TAF: